Time;durP1;ratioP1;P1;durP2;ratioP2;P2;SDS_P1;SDS_P2;PMS_P1;PMS_P2;Temp;Humidity;BMP_temperature;BMP_pressure;BME280_temperature;BME280_humidity;BME280_pressure;Samples;Min_cycle;Max_cycle;Signal;HPM_P1;HPM_P2
2023/03/19 00:01:25;;;;;;;4.07;2.40;;;19.80;60.10;;;;;;5070843;28;20489;-70
2023/03/19 00:03:51;;;;;;;5.90;2.63;;;19.80;60.10;;;;;;5061429;28;20040;-70
2023/03/19 00:06:16;;;;;;;3.65;2.45;;;19.80;60.10;;;;;;5068858;28;20545;-70
2023/03/19 00:08:42;;;;;;;4.30;2.30;;;19.80;60.10;;;;;;5050785;28;20097;-70
2023/03/19 00:11:11;;;;;;;3.83;2.38;;;19.80;60.10;;;;;;5071183;28;20487;-70
2023/03/19 00:13:37;;;;;;;6.00;2.70;;;19.80;60.00;;;;;;5070695;28;20075;-70
2023/03/19 00:16:03;;;;;;;5.53;2.70;;;19.80;60.10;;;;;;5071938;28;20072;-70
2023/03/19 00:18:29;;;;;;;5.22;2.33;;;19.70;60.00;;;;;;5071226;28;20086;-70
2023/03/19 00:20:55;;;;;;;3.88;2.28;;;19.80;60.00;;;;;;5052092;28;20037;-70
2023/03/19 00:23:21;;;;;;;4.72;2.45;;;19.70;60.00;;;;;;5051444;28;20519;-70
2023/03/19 00:25:47;;;;;;;4.40;2.22;;;19.80;60.00;;;;;;5050657;28;20073;-70
2023/03/19 00:28:12;;;;;;;3.83;2.35;;;19.70;60.00;;;;;;5051781;28;20041;-71
2023/03/19 00:30:38;;;;;;;4.00;2.38;;;19.70;59.90;;;;;;5052365;28;20124;-70
2023/03/19 00:33:03;;;;;;;4.97;2.50;;;19.70;59.90;;;;;;5051154;28;20059;-69
2023/03/19 00:35:29;;;;;;;4.88;2.40;;;19.70;59.90;;;;;;5052342;28;20041;-70
2023/03/19 00:37:54;;;;;;;3.80;2.28;;;19.70;59.90;;;;;;5050993;28;20048;-70
2023/03/19 00:40:20;;;;;;;3.58;1.90;;;19.70;59.80;;;;;;5052076;28;20124;-70
2023/03/19 00:42:46;;;;;;;3.92;2.28;;;19.70;59.90;;;;;;5052173;28;20055;-70
2023/03/19 00:45:12;;;;;;;3.70;2.20;;;19.70;60.00;;;;;;5033115;28;20045;-70
2023/03/19 00:47:37;;;;;;;5.35;2.58;;;19.70;59.80;;;;;;5066807;28;20051;-70
2023/03/19 00:50:04;;;;;;;4.65;2.50;;;19.70;59.80;;;;;;5071140;28;20119;-70
2023/03/19 00:52:29;;;;;;;3.67;2.10;;;19.70;59.80;;;;;;5070880;28;20090;-69
2023/03/19 00:54:55;;;;;;;4.43;2.10;;;19.60;59.70;;;;;;5044004;28;20044;-70
2023/03/19 00:57:21;;;;;;;3.55;2.40;;;19.70;59.80;;;;;;5051603;28;20610;-70
2023/03/19 00:59:46;;;;;;;3.38;1.80;;;19.60;59.70;;;;;;5051470;28;20044;-70
2023/03/19 01:02:12;;;;;;;3.22;2.20;;;19.60;59.70;;;;;;5033736;28;20049;-70
2023/03/19 01:04:38;;;;;;;3.17;1.90;;;19.60;59.70;;;;;;5055187;28;20037;-70
2023/03/19 01:07:03;;;;;;;4.55;2.30;;;19.60;59.70;;;;;;5054282;28;20488;-70
2023/03/19 01:09:29;;;;;;;2.88;1.90;;;19.60;59.60;;;;;;5055658;28;20049;-70
2023/03/19 01:11:55;;;;;;;3.67;1.95;;;19.60;59.60;;;;;;5055636;28;20049;-70
2023/03/19 01:14:20;;;;;;;3.30;2.03;;;19.60;59.60;;;;;;5054163;28;20499;-70
2023/03/19 01:16:46;;;;;;;4.38;1.83;;;19.60;59.60;;;;;;5055366;28;20037;-71
2023/03/19 01:19:12;;;;;;;5.65;2.25;;;19.60;59.60;;;;;;5055449;28;21715;-69
2023/03/19 01:21:37;;;;;;;3.35;2.08;;;19.60;59.60;;;;;;5054498;28;20033;-70
2023/03/19 01:24:03;;;;;;;3.60;2.20;;;19.60;59.60;;;;;;5055339;28;20500;-71
2023/03/19 01:26:29;;;;;;;3.90;2.08;;;19.60;59.50;;;;;;5055575;28;20068;-71
2023/03/19 01:28:55;;;;;;;3.58;1.95;;;19.60;59.60;;;;;;5054295;28;20195;-70
2023/03/19 01:31:20;;;;;;;4.10;1.90;;;19.60;59.60;;;;;;5037087;28;20049;-70
2023/03/19 01:33:46;;;;;;;3.92;2.20;;;19.50;59.50;;;;;;5069362;28;20044;-70
2023/03/19 01:36:12;;;;;;;3.92;1.90;;;19.50;59.50;;;;;;5074365;28;20045;-70
2023/03/19 01:38:37;;;;;;;2.58;1.98;;;19.50;59.50;;;;;;5075074;28;20052;-71
2023/03/19 01:41:03;;;;;;;3.70;1.95;;;19.60;59.50;;;;;;5074747;28;20044;-70
2023/03/19 01:43:30;;;;;;;3.80;1.77;;;19.50;59.40;;;;;;5062219;28;20040;-70
2023/03/19 01:46:07;;;;;;;2.95;1.90;;;19.50;59.40;;;;;;5057166;28;20052;-70
2023/03/19 01:48:40;;;;;;;3.17;1.98;;;19.50;59.40;;;;;;5054721;28;20083;-70
2023/03/19 01:51:06;;;;;;;3.45;1.77;;;19.50;59.40;;;;;;5057138;28;20045;-70
2023/03/19 01:53:32;;;;;;;3.15;1.92;;;19.50;59.40;;;;;;5040337;28;20045;-70
2023/03/19 01:56:03;;;;;;;2.72;1.77;;;19.50;59.40;;;;;;5056016;28;20105;-70
2023/03/19 01:58:29;;;;;;;3.97;1.85;;;19.50;59.40;;;;;;5007486;28;20427;-70
2023/03/19 02:00:55;;;;;;;3.28;1.67;;;19.50;59.40;;;;;;5040262;28;20128;-70
2023/03/19 02:03:21;;;;;;;3.60;1.88;;;19.50;59.30;;;;;;5055949;28;20045;-70
2023/03/19 02:05:47;;;;;;;4.32;1.73;;;19.50;59.30;;;;;;5074363;28;20044;-70
2023/03/19 02:08:14;;;;;;;4.05;1.92;;;19.40;59.20;;;;;;5046616;28;20041;-69
2023/03/19 02:10:40;;;;;;;2.35;1.60;;;19.50;59.30;;;;;;5052834;28;20075;-70
2023/03/19 02:13:05;;;;;;;3.33;1.92;;;19.40;59.20;;;;;;5039585;28;20475;-70
2023/03/19 02:15:31;;;;;;;4.10;1.90;;;19.50;59.30;;;;;;5073717;28;20071;-70
2023/03/19 02:17:57;;;;;;;2.85;1.38;;;19.50;59.30;;;;;;5039478;28;20040;-71
2023/03/19 02:20:37;;;;;;;3.47;1.80;;;19.50;59.30;;;;;;5056251;28;20033;-71
2023/03/19 02:23:25;;;;;;;2.83;1.88;;;19.40;59.20;;;;;;5039424;28;20048;-71
2023/03/19 02:26:04;;;;;;;2.38;1.75;;;19.50;59.20;;;;;;5055879;28;20048;-71
2023/03/19 02:28:29;;;;;;;3.00;1.73;;;19.40;59.20;;;;;;5073862;28;20047;-70
2023/03/19 02:30:55;;;;;;;2.55;1.70;;;19.40;59.20;;;;;;5039214;28;20040;-71
2023/03/19 02:33:20;;;;;;;3.83;1.60;;;19.40;59.20;;;;;;5072999;28;20407;-70
2023/03/19 02:35:48;;;;;;;2.90;1.38;;;19.40;59.20;;;;;;5073679;28;20086;-70
2023/03/19 02:38:13;;;;;;;2.13;1.48;;;19.40;59.10;;;;;;5072708;28;20055;-71
2023/03/19 02:41:06;;;;;;;2.20;1.52;;;19.40;59.20;;;;;;5058604;28;20036;-71
2023/03/19 02:43:33;;;;;;;3.42;1.77;;;19.40;59.10;;;;;;5050654;28;20060;-71
2023/03/19 02:45:59;;;;;;;1.88;1.30;;;19.40;59.10;;;;;;5035136;28;20052;-71
2023/03/19 02:48:25;;;;;;;3.53;1.98;;;19.40;59.20;;;;;;5039910;28;20048;-70
2023/03/19 02:50:51;;;;;;;2.15;1.55;;;19.40;59.10;;;;;;5072009;28;20154;-70
2023/03/19 02:53:16;;;;;;;2.65;1.70;;;19.30;59.10;;;;;;5053982;28;20044;-70
2023/03/19 02:55:42;;;;;;;2.72;1.40;;;19.40;59.10;;;;;;5073667;28;20044;-70
2023/03/19 02:58:08;;;;;;;2.58;1.52;;;19.40;59.10;;;;;;5073513;28;20041;-70
2023/03/19 03:00:33;;;;;;;2.40;1.58;;;19.30;59.00;;;;;;5072683;28;20033;-70
2023/03/19 03:02:59;;;;;;;3.33;2.03;;;19.40;59.10;;;;;;5073458;28;20392;-71
2023/03/19 03:05:25;;;;;;;2.38;1.40;;;19.30;59.00;;;;;;5043020;28;20060;-71
2023/03/19 03:07:50;;;;;;;2.78;1.65;;;19.30;59.00;;;;;;5052876;28;20450;-70
2023/03/19 03:10:16;;;;;;;3.35;1.40;;;19.30;59.00;;;;;;5052955;28;20092;-71
2023/03/19 03:12:42;;;;;;;2.55;1.52;;;19.30;59.00;;;;;;5052721;28;20052;-70
2023/03/19 03:15:08;;;;;;;2.10;1.35;;;19.30;59.00;;;;;;5043055;28;20040;-71
2023/03/19 03:17:37;;;;;;;2.47;1.60;;;19.30;59.00;;;;;;5073481;28;20032;-71
2023/03/19 03:20:04;;;;;;;2.60;1.50;;;19.30;59.00;;;;;;5071621;28;20120;-71
2023/03/19 03:22:30;;;;;;;2.45;1.40;;;19.30;59.00;;;;;;5072135;28;20499;-70
2023/03/19 03:24:55;;;;;;;2.63;1.35;;;19.30;59.00;;;;;;5072359;28;20028;-71
2023/03/19 03:27:21;;;;;;;3.10;1.63;;;19.30;59.00;;;;;;5051392;28;20605;-71
2023/03/19 03:29:47;;;;;;;2.47;1.48;;;19.30;58.90;;;;;;5053153;28;20037;-71
2023/03/19 03:32:13;;;;;;;2.72;1.70;;;19.30;58.90;;;;;;5052319;28;20037;-71
2023/03/19 03:34:39;;;;;;;1.65;1.27;;;19.30;58.80;;;;;;5052401;28;20044;-71
2023/03/19 03:37:05;;;;;;;2.20;1.38;;;19.30;58.80;;;;;;5052508;28;20040;-71
2023/03/19 03:39:31;;;;;;;2.08;1.30;;;19.30;58.80;;;;;;5053018;28;20103;-71
2023/03/19 03:41:56;;;;;;;1.90;1.45;;;19.30;58.80;;;;;;5034339;28;20120;-71
2023/03/19 03:44:22;;;;;;;2.72;1.35;;;19.30;58.80;;;;;;5052843;28;20037;-71
2023/03/19 03:46:48;;;;;;;2.17;1.17;;;19.30;58.80;;;;;;5035153;28;20049;-71
2023/03/19 03:49:13;;;;;;;2.67;1.63;;;19.30;58.80;;;;;;5051480;28;20048;-71
2023/03/19 03:51:40;;;;;;;2.22;1.05;;;19.30;58.80;;;;;;5052554;28;20041;-71
2023/03/19 03:54:05;;;;;;;2.25;1.17;;;19.30;58.80;;;;;;5052266;28;20124;-71
2023/03/19 03:56:32;;;;;;;2.15;1.35;;;19.40;58.80;;;;;;5069991;28;20329;-71
2023/03/19 03:58:57;;;;;;;2.28;1.30;;;19.40;58.80;;;;;;5053677;28;20127;-71
2023/03/19 04:01:23;;;;;;;2.40;1.30;;;19.40;58.80;;;;;;5072192;28;20443;-71
2023/03/19 04:03:49;;;;;;;2.08;1.13;;;19.40;58.80;;;;;;5053811;28;20071;-71
2023/03/19 04:06:15;;;;;;;2.42;1.20;;;19.40;58.80;;;;;;5071808;28;20040;-71
2023/03/19 04:08:41;;;;;;;2.15;1.20;;;19.40;58.80;;;;;;5071482;28;20067;-71
2023/03/19 04:11:07;;;;;;;2.67;1.20;;;19.50;58.80;;;;;;5070382;28;20448;-72
2023/03/19 04:13:35;;;;;;;1.88;1.20;;;19.50;58.80;;;;;;5072576;28;20054;-72
2023/03/19 04:16:05;;;;;;;1.80;1.02;;;19.50;58.80;;;;;;5071129;28;20120;-71
2023/03/19 04:18:31;;;;;;;1.27;1.10;;;19.60;58.90;;;;;;5054259;28;20376;-71
2023/03/19 04:20:57;;;;;;;2.22;1.20;;;19.60;58.80;;;;;;5071725;28;20099;-70
2023/03/19 04:23:23;;;;;;;1.73;1.17;;;19.60;58.80;;;;;;5053484;28;20053;-70
2023/03/19 04:25:49;;;;;;;2.00;1.10;;;19.60;58.70;;;;;;5072138;28;20094;-71
2023/03/19 04:28:15;;;;;;;1.77;1.00;;;19.60;58.80;;;;;;5070889;28;20048;-71
2023/03/19 04:30:42;;;;;;;2.60;1.23;;;19.60;58.70;;;;;;5071071;28;20075;-71
2023/03/19 04:33:08;;;;;;;1.85;1.10;;;19.70;58.70;;;;;;5071615;28;20051;-71
2023/03/19 04:35:33;;;;;;;2.00;1.00;;;19.70;59.40;;;;;;5072143;28;20048;-70
2023/03/19 04:37:59;;;;;;;2.15;0.90;;;19.70;58.70;;;;;;5052166;28;20063;-71
2023/03/19 04:40:25;;;;;;;1.88;1.00;;;19.70;58.70;;;;;;5053243;28;20072;-71
2023/03/19 04:42:50;;;;;;;2.05;1.00;;;19.70;58.70;;;;;;5071802;28;20048;-70
2023/03/19 04:45:16;;;;;;;1.08;0.93;;;19.70;58.70;;;;;;5068443;28;20353;-70
2023/03/19 04:47:42;;;;;;;1.63;1.00;;;19.80;58.70;;;;;;5051965;28;20064;-70
2023/03/19 04:50:08;;;;;;;1.50;0.90;;;19.80;58.70;;;;;;5064965;28;20449;-70
2023/03/19 04:52:36;;;;;;;2.22;1.02;;;19.80;58.60;;;;;;5071548;28;20048;-71
2023/03/19 04:55:02;;;;;;;1.73;1.00;;;19.90;58.70;;;;;;5071345;28;20047;-70
2023/03/19 04:57:28;;;;;;;1.75;1.02;;;19.80;58.60;;;;;;5072061;28;20055;-70
2023/03/19 04:59:56;;;;;;;1.67;0.80;;;19.80;58.60;;;;;;5070840;28;20044;-71
2023/03/19 05:02:22;;;;;;;2.28;1.00;;;19.80;58.60;;;;;;5071225;28;20110;-71
2023/03/19 05:04:48;;;;;;;1.88;1.00;;;19.90;58.60;;;;;;5052022;28;20045;-71
2023/03/19 05:07:13;;;;;;;1.35;0.90;;;19.90;58.60;;;;;;5034754;28;20480;-71
2023/03/19 05:09:39;;;;;;;1.77;1.02;;;19.90;58.50;;;;;;5071702;28;20458;-71
2023/03/19 05:12:05;;;;;;;1.25;0.85;;;19.90;58.50;;;;;;5070180;28;20128;-71
2023/03/19 05:14:31;;;;;;;1.77;1.10;;;19.90;58.50;;;;;;5070977;28;20040;-70
2023/03/19 05:16:57;;;;;;;1.98;0.90;;;19.90;58.50;;;;;;5035612;28;20392;-71
2023/03/19 05:19:24;;;;;;;2.13;1.00;;;19.90;58.50;;;;;;5032814;28;20103;-70
2023/03/19 05:21:49;;;;;;;1.33;1.00;;;20.00;58.60;;;;;;5068043;28;20124;-70
2023/03/19 05:24:15;;;;;;;1.58;0.82;;;20.00;58.60;;;;;;5071347;28;20123;-70
2023/03/19 05:26:41;;;;;;;1.27;0.80;;;20.00;58.50;;;;;;5055576;28;20123;-70
2023/03/19 05:29:09;;;;;;;1.90;1.05;;;20.00;58.50;;;;;;5051240;28;20037;-70
2023/03/19 05:31:36;;;;;;;1.92;1.10;;;20.00;58.50;;;;;;5051670;28;20115;-70
2023/03/19 05:34:01;;;;;;;1.30;0.90;;;20.00;58.50;;;;;;5050502;28;20056;-70
2023/03/19 05:36:27;;;;;;;1.10;0.80;;;20.00;58.50;;;;;;5051755;28;20098;-70
2023/03/19 05:38:53;;;;;;;1.45;0.88;;;20.00;58.40;;;;;;5051703;28;20037;-70
2023/03/19 05:41:19;;;;;;;1.52;0.73;;;20.00;58.40;;;;;;5050282;28;20091;-70
2023/03/19 05:43:44;;;;;;;1.90;1.02;;;20.00;58.40;;;;;;5051542;28;20037;-70
2023/03/19 05:46:10;;;;;;;1.40;0.80;;;20.10;58.50;;;;;;5051257;28;20048;-70
2023/03/19 05:48:36;;;;;;;1.55;0.80;;;20.10;59.20;;;;;;5032749;28;20141;-65
2023/03/19 05:51:02;;;;;;;1.52;0.82;;;20.10;58.50;;;;;;5053541;28;20060;-69
2023/03/19 05:53:28;;;;;;;1.85;0.80;;;20.10;58.50;;;;;;5060604;28;20037;-69
2023/03/19 05:55:53;;;;;;;1.23;0.82;;;20.10;58.50;;;;;;5073907;28;20044;-69
2023/03/19 05:58:19;;;;;;;1.65;0.90;;;20.10;58.50;;;;;;5074440;28;20133;-69
2023/03/19 06:00:45;;;;;;;1.00;0.70;;;20.10;58.40;;;;;;5069739;28;20046;-69
2023/03/19 06:03:11;;;;;;;2.08;0.80;;;20.10;58.50;;;;;;5035754;28;20136;-69
2023/03/19 06:05:36;;;;;;;1.33;0.90;;;20.10;58.40;;;;;;5054847;28;20040;-69
2023/03/19 06:08:03;;;;;;;1.20;0.75;;;20.10;58.50;;;;;;5054437;28;20084;-69
2023/03/19 06:10:28;;;;;;;1.77;0.80;;;20.10;58.50;;;;;;5053767;28;20149;-69
2023/03/19 06:12:54;;;;;;;1.35;0.80;;;20.10;58.50;;;;;;5064458;28;20516;-69
2023/03/19 06:15:19;;;;;;;3.28;0.77;;;20.20;58.50;;;;;;5072505;28;20085;-64
2023/03/19 06:17:45;;;;;;;3.35;0.93;;;20.20;58.60;;;;;;5054038;28;20070;-68
2023/03/19 06:20:11;;;;;;;1.80;0.82;;;20.20;58.60;;;;;;5054302;28;20080;-68
2023/03/19 06:22:37;;;;;;;3.20;0.68;;;20.20;58.70;;;;;;5055177;28;20069;-68
2023/03/19 06:25:03;;;;;;;3.08;0.95;;;20.20;58.70;;;;;;5047391;28;20083;-67
2023/03/19 06:27:28;;;;;;;2.60;0.75;;;20.20;58.80;;;;;;5074252;28;20386;-68
2023/03/19 06:29:54;;;;;;;2.72;0.90;;;20.20;59.00;;;;;;5073207;28;20056;-68
2023/03/19 06:32:20;;;;;;;1.73;0.90;;;20.20;59.10;;;;;;5073586;28;20082;-68
2023/03/19 06:34:45;;;;;;;0.90;0.70;;;20.20;59.10;;;;;;5073097;28;20471;-66
2023/03/19 06:37:11;;;;;;;4.50;0.80;;;20.20;59.20;;;;;;5072920;28;20048;-67
2023/03/19 06:39:37;;;;;;;1.38;0.60;;;20.20;59.20;;;;;;5074144;28;20047;-66
2023/03/19 06:42:02;;;;;;;1.73;0.77;;;20.30;59.30;;;;;;5059871;28;20041;-65
2023/03/19 06:44:28;;;;;;;1.67;0.82;;;20.30;59.40;;;;;;5047774;28;20055;-65
2023/03/19 06:46:54;;;;;;;1.27;0.63;;;20.30;59.40;;;;;;5043715;28;20076;-65
2023/03/19 06:49:20;;;;;;;1.25;0.70;;;20.30;59.50;;;;;;5064498;28;20068;-65
2023/03/19 06:51:46;;;;;;;0.93;0.60;;;20.30;59.50;;;;;;5073017;28;20074;-66
2023/03/19 06:54:11;;;;;;;19.60;1.23;;;20.30;59.50;;;;;;5039969;28;20037;-65
2023/03/19 06:56:37;;;;;;;1.75;0.68;;;20.30;59.60;;;;;;5054042;28;20037;-65
2023/03/19 06:59:03;;;;;;;0.82;0.60;;;20.40;59.60;;;;;;5052780;28;20037;-65
2023/03/19 07:01:28;;;;;;;1.85;0.60;;;20.40;59.60;;;;;;5053572;28;20145;-65
2023/03/19 07:03:56;;;;;;;0.73;0.60;;;20.40;59.60;;;;;;5053609;28;20037;-65
2023/03/19 07:06:21;;;;;;;1.43;0.70;;;20.40;59.60;;;;;;5052891;28;20048;-63
2023/03/19 07:08:47;;;;;;;1.42;0.70;;;20.40;59.60;;;;;;5053486;28;20037;-65
2023/03/19 07:11:13;;;;;;;1.15;0.60;;;20.40;59.60;;;;;;5053320;28;20392;-66
2023/03/19 07:13:38;;;;;;;0.70;0.60;;;20.40;59.60;;;;;;5069216;28;20049;-66
2023/03/19 07:16:05;;;;;;;1.00;0.70;;;20.40;59.60;;;;;;5071693;28;20348;-66
2023/03/19 07:18:30;;;;;;;1.55;0.70;;;20.40;59.70;;;;;;5055256;28;20496;-66
2023/03/19 07:20:56;;;;;;;1.67;0.60;;;20.40;59.70;;;;;;5069819;28;20032;-65
2023/03/19 07:23:21;;;;;;;1.25;0.70;;;20.40;59.80;;;;;;5053019;28;20532;-67
2023/03/19 07:25:47;;;;;;;3.00;0.70;;;20.50;59.90;;;;;;5061091;28;20037;-67
2023/03/19 07:28:13;;;;;;;1.17;0.57;;;20.40;59.80;;;;;;5052096;28;20033;-67
2023/03/19 07:30:39;;;;;;;1.00;0.80;;;20.40;59.80;;;;;;5070609;28;20434;-63
2023/03/19 07:33:06;;;;;;;1.10;0.65;;;20.50;59.90;;;;;;5071376;28;20044;-65
2023/03/19 07:35:32;;;;;;;2.10;0.77;;;20.50;59.90;;;;;;5072800;28;20094;-64
2023/03/19 07:37:58;;;;;;;1.58;0.70;;;20.50;59.90;;;;;;5072655;28;20123;-65
2023/03/19 07:40:24;;;;;;;0.98;0.60;;;20.50;60.00;;;;;;5071432;28;20123;-66
2023/03/19 07:42:50;;;;;;;4.18;0.77;;;20.50;60.00;;;;;;5069453;28;20097;-65
2023/03/19 07:45:16;;;;;;;1.70;0.70;;;20.50;60.00;;;;;;5052460;28;20049;-65
2023/03/19 07:47:41;;;;;;;2.58;0.60;;;20.40;60.00;;;;;;5067577;28;20075;-65
2023/03/19 07:50:07;;;;;;;3.95;0.80;;;20.50;60.10;;;;;;5072420;28;20064;-67
2023/03/19 07:52:33;;;;;;;1.83;0.60;;;20.50;60.10;;;;;;5072324;28;20526;-65
2023/03/19 07:54:59;;;;;;;2.00;0.70;;;20.50;60.00;;;;;;5071686;28;20136;-66
2023/03/19 07:57:25;;;;;;;2.00;0.50;;;20.50;60.10;;;;;;5072065;28;20071;-66
2023/03/19 07:59:53;;;;;;;2.90;0.80;;;20.50;60.10;;;;;;5072510;28;20055;-66
2023/03/19 08:02:19;;;;;;;2.22;0.70;;;20.50;60.10;;;;;;5070713;28;20480;-66
2023/03/19 08:04:45;;;;;;;1.98;0.50;;;20.50;60.10;;;;;;5069612;28;20055;-66
2023/03/19 08:07:11;;;;;;;1.88;0.75;;;20.50;60.20;;;;;;5068792;28;20119;-66
2023/03/19 08:09:38;;;;;;;1.88;0.82;;;20.50;60.20;;;;;;5069783;28;20059;-63
2023/03/19 08:12:04;;;;;;;4.90;0.70;;;20.50;60.10;;;;;;5056727;28;20071;-67
2023/03/19 08:14:30;;;;;;;2.15;0.70;;;20.50;60.10;;;;;;5070391;28;20045;-67
2023/03/19 08:16:55;;;;;;;1.13;0.55;;;20.50;60.10;;;;;;5069721;28;20044;-69
2023/03/19 08:19:22;;;;;;;1.40;0.70;;;20.50;60.00;;;;;;5053397;28;20045;-67
2023/03/19 08:21:47;;;;;;;4.05;0.65;;;20.50;60.00;;;;;;5072072;28;20048;-67
2023/03/19 08:24:13;;;;;;;2.45;0.73;;;20.50;60.00;;;;;;5071283;28;20045;-67
2023/03/19 08:26:39;;;;;;;2.72;0.85;;;20.50;60.00;;;;;;5071667;28;20055;-68
2023/03/19 08:29:05;;;;;;;4.18;1.33;;;20.50;60.00;;;;;;5071792;28;20044;-70
2023/03/19 08:31:31;;;;;;;8.98;1.60;;;20.50;59.90;;;;;;5053088;28;20041;-66
2023/03/19 08:33:59;;;;;;;4.60;1.67;;;20.50;59.90;;;;;;5053925;28;20037;-66
2023/03/19 08:36:24;;;;;;;7.47;2.13;;;20.50;60.00;;;;;;5070779;28;20403;-66
2023/03/19 08:38:53;;;;;;;8.30;2.10;;;20.50;60.00;;;;;;5072148;28;20044;-72
2023/03/19 08:41:19;;;;;;;8.25;2.00;;;20.50;59.90;;;;;;5071099;28;20487;-65
2023/03/19 08:43:45;;;;;;;4.57;1.85;;;20.50;59.90;;;;;;5071029;28;20044;-65
2023/03/19 08:46:11;;;;;;;6.72;1.90;;;20.50;59.90;;;;;;5065353;28;20549;-63
2023/03/19 08:48:36;;;;;;;8.57;2.80;;;20.50;59.80;;;;;;5051772;28;20072;-65
2023/03/19 08:51:02;;;;;;;6.07;2.20;;;20.40;59.20;;;;;;5059307;28;20106;-65
2023/03/19 08:53:28;;;;;;;7.63;2.28;;;20.40;59.00;;;;;;5071915;28;20032;-65
2023/03/19 08:55:55;;;;;;;5.88;2.75;;;20.40;58.90;;;;;;5053385;28;20052;-65
2023/03/19 08:58:21;;;;;;;6.90;2.13;;;20.40;58.90;;;;;;5070677;28;20459;-65
2023/03/19 09:00:47;;;;;;;5.10;2.25;;;20.40;58.90;;;;;;5071569;28;20043;-65
2023/03/19 09:03:13;;;;;;;7.65;2.40;;;20.40;58.90;;;;;;5071389;28;20507;-65
2023/03/19 09:05:39;;;;;;;5.45;2.30;;;20.40;58.90;;;;;;5070541;28;20076;-65
2023/03/19 09:08:05;;;;;;;4.90;2.50;;;20.40;58.80;;;;;;5071731;28;20040;-65
2023/03/19 09:10:30;;;;;;;6.22;2.22;;;20.40;58.80;;;;;;5071302;28;20396;-65
2023/03/19 09:12:56;;;;;;;6.13;1.80;;;20.40;58.80;;;;;;5036459;28;20549;-65
2023/03/19 09:15:22;;;;;;;6.97;2.20;;;20.40;58.80;;;;;;5052970;28;20052;-65
2023/03/19 09:17:47;;;;;;;6.20;1.92;;;20.40;58.80;;;;;;5071861;28;20040;-65
2023/03/19 09:20:13;;;;;;;6.63;2.00;;;20.40;58.80;;;;;;5070139;28;20135;-65
2023/03/19 09:22:39;;;;;;;5.68;2.10;;;20.40;58.80;;;;;;5071490;28;20036;-65
2023/03/19 09:25:05;;;;;;;4.60;2.20;;;20.40;58.80;;;;;;5073910;28;20044;-65
2023/03/19 09:27:31;;;;;;;5.10;2.20;;;20.40;58.80;;;;;;5074611;28;20093;-65
2023/03/19 09:30:00;;;;;;;6.43;2.10;;;20.40;58.80;;;;;;5075464;28;20136;-65
2023/03/19 09:32:25;;;;;;;6.32;1.98;;;20.40;58.80;;;;;;5074333;28;20068;-66
2023/03/19 09:34:51;;;;;;;5.05;2.03;;;20.40;59.00;;;;;;5075306;28;20072;-65
2023/03/19 09:37:16;;;;;;;4.72;2.05;;;20.40;58.80;;;;;;5074810;28;20045;-65
2023/03/19 09:39:42;;;;;;;5.55;2.03;;;20.40;58.70;;;;;;5074588;28;20045;-65
2023/03/19 09:42:31;;;;;;;4.88;2.03;;;20.40;58.80;;;;;;5074700;28;20033;-65
2023/03/19 09:44:57;;;;;;;4.20;1.80;;;20.40;58.70;;;;;;5059480;28;20045;-65
2023/03/19 09:47:33;;;;;;;5.13;1.90;;;20.30;58.70;;;;;;5056198;28;20056;-65
2023/03/19 09:50:00;;;;;;;4.90;1.77;;;20.40;58.80;;;;;;5074057;28;20095;-65
2023/03/19 09:52:46;;;;;;;4.68;1.67;;;20.30;58.70;;;;;;5039500;28;20408;-65
2023/03/19 09:55:17;;;;;;;3.10;1.67;;;20.30;58.60;;;;;;5054586;28;20045;-65
2023/03/19 09:57:43;;;;;;;3.63;1.90;;;20.30;58.70;;;;;;5074523;28;20045;-65
2023/03/19 10:00:33;;;;;;;4.88;1.98;;;20.30;58.70;;;;;;5056673;28;20051;-65
2023/03/19 10:03:22;;;;;;;5.35;1.95;;;20.30;58.60;;;;;;5029795;28;20060;-65
2023/03/19 10:05:59;;;;;;;3.97;1.73;;;20.30;58.70;;;;;;5074448;28;20476;-65
2023/03/19 10:08:32;;;;;;;4.68;2.17;;;20.30;58.70;;;;;;5055827;28;20384;-65
2023/03/19 10:11:03;;;;;;;4.80;1.80;;;20.30;58.70;;;;;;5074148;28;20130;-64
2023/03/19 10:14:00;;;;;;;3.42;1.80;;;20.30;58.70;;;;;;5057110;28;20127;-65
2023/03/19 10:16:26;;;;;;;3.88;1.50;;;20.30;58.60;;;;;;5055471;28;20036;-65
2023/03/19 10:18:53;;;;;;;3.75;1.83;;;20.30;58.70;;;;;;5039973;28;20132;-64
2023/03/19 10:21:25;;;;;;;3.70;2.10;;;20.30;58.60;;;;;;5023115;28;20101;-65
2023/03/19 10:24:03;;;;;;;5.68;1.80;;;20.30;58.60;;;;;;5056626;28;20128;-64
2023/03/19 10:26:30;;;;;;;3.05;1.88;;;20.30;58.60;;;;;;5056337;28;20036;-65
2023/03/19 10:29:10;;;;;;;3.53;1.80;;;20.30;58.60;;;;;;5055675;28;20102;-65
2023/03/19 10:31:45;;;;;;;4.60;1.80;;;20.30;58.60;;;;;;5056284;28;20037;-65
2023/03/19 10:34:20;;;;;;;3.13;1.75;;;20.30;58.60;;;;;;5074066;28;20040;-65
2023/03/19 10:36:46;;;;;;;3.92;1.90;;;20.30;58.60;;;;;;5062907;28;20526;-65
2023/03/19 10:39:13;;;;;;;5.13;1.80;;;20.30;58.60;;;;;;5036037;28;20057;-65
2023/03/19 10:41:53;;;;;;;3.58;1.90;;;20.30;58.50;;;;;;5036672;28;20045;-64
2023/03/19 10:44:34;;;;;;;3.70;1.88;;;20.30;58.50;;;;;;5034811;28;20470;-64
2023/03/19 10:47:10;;;;;;;4.60;2.00;;;20.30;58.50;;;;;;5019355;28;20476;-65
2023/03/19 10:49:35;;;;;;;4.50;2.10;;;20.30;58.50;;;;;;5053929;28;20083;-64
2023/03/19 10:52:01;;;;;;;4.72;1.88;;;20.30;58.50;;;;;;5034837;28;20049;-64
2023/03/19 10:54:27;;;;;;;3.28;1.73;;;20.30;58.50;;;;;;5053820;28;20045;-65
2023/03/19 10:56:57;;;;;;;3.55;1.88;;;20.30;58.50;;;;;;5052907;28;20056;-65
2023/03/19 10:59:29;;;;;;;3.67;1.90;;;20.30;58.50;;;;;;5035905;28;20156;-65
2023/03/19 11:02:01;;;;;;;6.25;1.92;;;20.30;58.40;;;;;;5036234;28;20120;-65
2023/03/19 11:04:28;;;;;;;3.65;1.60;;;20.30;58.50;;;;;;5052784;28;20052;-65
2023/03/19 11:07:09;;;;;;;5.63;1.80;;;20.30;58.40;;;;;;5035568;28;20114;-65
2023/03/19 11:09:39;;;;;;;4.05;2.13;;;20.30;58.30;;;;;;5053449;28;20111;-65
2023/03/19 11:12:21;;;;;;;4.35;1.98;;;20.30;58.40;;;;;;5024950;28;20091;-65
2023/03/19 11:14:56;;;;;;;3.80;1.77;;;20.30;58.30;;;;;;5053449;28;20041;-65
2023/03/19 11:17:25;;;;;;;4.03;1.70;;;20.30;58.30;;;;;;5030535;28;20093;-65
2023/03/19 11:19:52;;;;;;;3.22;1.70;;;20.30;58.30;;;;;;5072661;28;20089;-65
2023/03/19 11:22:31;;;;;;;3.40;1.90;;;20.30;58.30;;;;;;5061624;28;20131;-65
2023/03/19 11:25:14;;;;;;;3.60;1.63;;;20.30;58.30;;;;;;5034961;28;20067;-65
2023/03/19 11:27:40;;;;;;;3.03;1.60;;;20.40;58.40;;;;;;5035633;28;20068;-66
2023/03/19 11:30:27;;;;;;;3.53;1.60;;;20.40;58.40;;;;;;5034771;28;20048;-65
2023/03/19 11:33:11;;;;;;;2.88;1.67;;;20.40;58.30;;;;;;5034222;28;20090;-65
2023/03/19 11:36:16;;;;;;;4.07;1.88;;;20.40;58.40;;;;;;5035181;28;20099;-65
2023/03/19 11:38:54;;;;;;;3.45;1.95;;;20.40;58.50;;;;;;5041753;28;20056;-65
2023/03/19 11:41:35;;;;;;;3.08;1.75;;;20.40;58.40;;;;;;5050807;28;20048;-65
2023/03/19 11:44:22;;;;;;;3.50;1.80;;;20.40;58.30;;;;;;5052601;28;20049;-65
2023/03/19 11:47:10;;;;;;;4.13;2.22;;;20.40;58.30;;;;;;5033794;28;20451;-63
2023/03/19 11:49:57;;;;;;;4.35;2.08;;;20.40;58.30;;;;;;5034438;28;20381;-64
2023/03/19 11:52:52;;;;;;;3.45;1.88;;;20.40;58.30;;;;;;5034892;28;20040;-64
2023/03/19 11:55:31;;;;;;;4.00;1.70;;;20.40;58.30;;;;;;5033811;28;20049;-64
2023/03/19 11:58:00;;;;;;;3.60;2.05;;;20.40;58.40;;;;;;5052474;28;20051;-65
2023/03/19 12:00:49;;;;;;;3.08;1.95;;;20.40;58.40;;;;;;5051787;28;20567;-65
2023/03/19 12:03:36;;;;;;;4.03;2.00;;;20.40;58.40;;;;;;5017826;28;20049;-64
2023/03/19 12:06:26;;;;;;;3.53;1.67;;;20.50;58.50;;;;;;5034896;28;20057;-64
2023/03/19 12:09:24;;;;;;;4.97;1.70;;;20.50;58.50;;;;;;5036475;28;20106;-65
2023/03/19 12:11:54;;;;;;;2.75;1.85;;;20.50;58.50;;;;;;5038454;28;20053;-65
2023/03/19 12:14:29;;;;;;;4.15;2.00;;;20.50;58.50;;;;;;5036946;28;20041;-65
2023/03/19 12:17:31;;;;;;;3.63;1.92;;;20.50;58.40;;;;;;5054979;28;20463;-64
2023/03/19 12:20:19;;;;;;;3.22;2.00;;;20.50;58.40;;;;;;5057130;28;20130;-64
2023/03/19 12:22:51;;;;;;;4.78;2.05;;;20.60;58.40;;;;;;5053442;28;20080;-65
2023/03/19 12:25:51;;;;;;;3.47;1.90;;;20.60;58.40;;;;;;5072053;28;20061;-64
2023/03/19 12:28:28;;;;;;;3.83;2.00;;;20.60;58.40;;;;;;5053015;28;20386;-65
2023/03/19 12:31:15;;;;;;;3.80;1.60;;;20.60;59.00;;;;;;5037505;28;20041;-64
2023/03/19 12:33:59;;;;;;;3.75;1.95;;;20.60;58.30;;;;;;5056526;28;20041;-64
2023/03/19 12:36:27;;;;;;;3.13;1.85;;;20.60;58.30;;;;;;5071338;28;20051;-64
2023/03/19 12:38:53;;;;;;;;;;;20.60;58.30;;;;;;5034825;28;20439;-64
2023/03/19 12:41:28;;;;;;;3.15;1.80;;;20.60;58.30;;;;;;5033963;28;19966;-64
2023/03/19 12:44:04;;;;;;;2.45;1.70;;;20.60;58.40;;;;;;5017154;28;20131;-64
2023/03/19 12:46:41;;;;;;;3.70;1.90;;;20.60;58.40;;;;;;5033995;28;20047;-65
2023/03/19 12:49:24;;;;;;;3.30;1.90;;;20.60;58.40;;;;;;5033408;28;20116;-64
2023/03/19 12:51:58;;;;;;;3.38;1.90;;;20.60;58.40;;;;;;5052265;28;20052;-65
2023/03/19 12:54:47;;;;;;;2.85;1.67;;;20.60;58.30;;;;;;5034133;28;20037;-65
2023/03/19 12:57:21;;;;;;;2.75;1.75;;;20.70;58.40;;;;;;5019578;28;20119;-65